Time;durP1;ratioP1;P1;durP2;ratioP2;P2;SDS_P1;SDS_P2;PMS_P1;PMS_P2;Temp;Humidity;BMP_temperature;BMP_pressure;BME280_temperature;BME280_humidity;BME280_pressure;Samples;Min_cycle;Max_cycle;Signal;HPM_P1;HPM_P2
2022/01/11 00:00:37;;;;;;;109.47;38.30;;;;;;;-5.87;100.00;101577.47;5109695;22;21610;-81
2022/01/11 00:03:05;;;;;;;108.97;37.60;;;;;;;-5.89;100.00;101576.63;5135177;22;20328;-82
2022/01/11 00:05:39;;;;;;;116.43;38.93;;;;;;;-6.07;100.00;101573.31;5152118;22;20477;-80
2022/01/11 00:08:11;;;;;;;105.73;36.50;;;;;;;-5.93;100.00;101573.19;5148873;22;20203;-82
2022/01/11 00:10:53;;;;;;;100.33;35.47;;;;;;;-5.79;100.00;101578.25;5095903;22;20277;-80
2022/01/11 00:13:21;;;;;;;109.60;37.97;;;;;;;-5.96;100.00;101581.88;5152996;22;20213;-80
2022/01/11 00:15:48;;;;;;;116.17;39.60;;;;;;;-6.18;100.00;101588.06;5134210;22;20763;-81
2022/01/11 00:18:15;;;;;;;108.60;38.73;;;;;;;-5.99;100.00;101578.47;5154151;22;21331;-80
2022/01/11 00:20:41;;;;;;;102.57;37.83;;;;;;;-5.85;100.00;101575.69;5118413;22;20197;-82
2022/01/11 00:25:43;;;;;;;104.13;37.07;;;;;;;-5.91;100.00;101581.81;5097428;22;21720;-79
2022/01/11 00:28:12;;;;;;;104.37;35.53;;;;;;;-6.05;100.00;101575.91;5098165;22;20374;-82
2022/01/11 00:30:41;;;;;;;110.57;37.90;;;;;;;-6.20;100.00;101587.25;5093793;22;20474;-87
2022/01/11 00:33:12;;;;;;;100.00;35.37;;;;;;;-5.98;100.00;101586.19;5064962;22;23645;-80
2022/01/11 00:35:42;;;;;;;99.77;35.93;;;;;;;-5.96;100.00;101587.06;5093712;22;20208;-85
2022/01/11 00:38:17;;;;;;;104.90;36.90;;;;;;;-5.96;100.00;101589.66;5082928;22;21145;-84
2022/01/11 00:40:49;;;;;;;105.73;37.37;;;;;;;-6.06;100.00;101587.16;5113679;22;20344;-82
2022/01/11 00:43:17;;;;;;;104.17;37.10;;;;;;;-6.10;100.00;101585.44;5149909;22;21479;-83
2022/01/11 00:45:44;;;;;;;95.47;36.87;;;;;;;-6.23;100.00;101585.53;5067002;22;20231;-82
2022/01/11 00:48:11;;;;;;;106.33;37.07;;;;;;;-6.09;100.00;101581.97;5092954;22;20262;-82
2022/01/11 00:50:38;;;;;;;103.17;37.87;;;;;;;-6.15;100.00;101588.06;5098273;22;20370;-79
2022/01/11 00:53:05;;;;;;;107.00;36.60;;;;;;;-6.07;100.00;101582.81;5082718;22;20204;-79
2022/01/11 00:55:34;;;;;;;92.53;36.90;;;;;;;-6.13;100.00;101591.50;5091295;22;21297;-84
2022/01/11 00:58:05;;;;;;;100.10;36.70;;;;;;;-6.27;100.00;101589.00;5118840;22;21739;-81
2022/01/11 01:00:36;;;;;;;103.17;37.10;;;;;;;-6.30;100.00;101593.34;5114191;22;22848;-82
2022/01/11 01:03:03;;;;;;;112.83;38.13;;;;;;;-6.31;100.00;101596.81;5133853;22;20269;-82
2022/01/11 01:05:30;;;;;;;96.43;37.83;;;;;;;-6.33;100.00;101590.78;5089384;22;20253;-85
2022/01/11 01:07:57;;;;;;;101.23;36.17;;;;;;;-6.41;100.00;101589.09;5148442;22;26532;-78
2022/01/11 01:10:29;;;;;;;97.27;34.80;;;;;;;-6.45;100.00;101578.75;5153676;22;20268;-84
2022/01/11 01:12:57;;;;;;;96.30;34.60;;;;;;;-6.30;100.00;101588.16;5140516;22;20646;-83
2022/01/11 01:15:25;;;;;;;104.57;36.00;;;;;;;-6.31;100.00;101587.31;5147015;22;20221;-83
2022/01/11 01:17:53;;;;;;;103.80;37.27;;;;;;;-6.29;100.00;101584.72;5136404;22;21690;-82
2022/01/11 01:20:20;;;;;;;103.93;36.17;;;;;;;-6.20;100.00;101590.69;5155322;22;20209;-79
2022/01/11 01:22:50;;;;;;;109.40;36.50;;;;;;;-6.26;100.00;101595.06;5124554;22;20202;-81
2022/01/11 01:25:21;;;;;;;95.73;34.77;;;;;;;-6.33;100.00;101590.78;5135052;22;20205;-81
2022/01/11 01:27:48;;;;;;;95.47;34.63;;;;;;;-6.19;100.00;101600.16;5105852;22;20259;-79
2022/01/11 01:30:16;;;;;;;102.23;37.13;;;;;;;-6.07;100.00;101594.03;5141605;22;25423;-83
2022/01/11 01:32:42;;;;;;;96.37;36.40;;;;;;;-6.07;100.00;101601.81;5140124;22;20423;-88
2022/01/11 01:35:10;;;;;;;98.97;34.67;;;;;;;-6.18;100.00;101606.19;5150713;22;20206;-85
2022/01/11 01:37:36;;;;;;;99.37;34.50;;;;;;;-6.22;100.00;101604.53;5153225;22;21146;-83
2022/01/11 01:40:05;;;;;;;97.43;37.67;;;;;;;-6.18;100.00;101607.09;5176923;22;20205;-79
2022/01/11 01:42:34;;;;;;;88.87;34.17;;;;;;;-6.01;100.00;101612.16;5133436;22;20375;-79
2022/01/11 01:45:02;;;;;;;99.70;35.03;;;;;;;-5.95;100.00;101608.66;5137636;22;21142;-85
2022/01/11 01:47:30;;;;;;;95.10;35.50;;;;;;;-5.98;100.00;101611.25;5143499;22;20207;-87
2022/01/11 01:49:57;;;;;;;92.60;33.13;;;;;;;-6.08;100.00;101610.47;5141184;22;20199;-84
2022/01/11 01:52:25;;;;;;;94.17;33.87;;;;;;;-5.93;100.00;101615.50;5127874;22;20360;-84
2022/01/11 01:54:52;;;;;;;86.63;34.47;;;;;;;-5.94;100.00;101621.56;5104420;22;20207;-81
2022/01/11 01:57:19;;;;;;;93.70;34.10;;;;;;;-6.12;100.00;101633.81;5114176;22;20358;-80
2022/01/11 01:59:45;;;;;;;95.70;35.13;;;;;;;-6.32;100.00;101624.44;5118751;22;20546;-80
2022/01/11 02:02:13;;;;;;;92.43;34.00;;;;;;;-6.31;100.00;101622.72;5089908;22;20257;-79
2022/01/11 02:04:41;;;;;;;97.87;35.23;;;;;;;-6.46;100.00;101627.09;5143443;22;20669;-84
2022/01/11 02:07:08;;;;;;;88.23;33.80;;;;;;;-6.48;100.00;101630.56;5105920;22;21376;-90
2022/01/11 02:09:35;;;;;;;94.00;33.33;;;;;;;-6.34;100.00;101630.47;5153923;22;20198;-80
2022/01/11 02:12:02;;;;;;;86.43;32.40;;;;;;;-6.23;100.00;101628.69;5137665;22;20209;-80
2022/01/11 02:14:29;;;;;;;89.33;33.83;;;;;;;-6.19;100.00;101630.41;5144503;22;20313;-83
2022/01/11 02:16:57;;;;;;;89.93;34.20;;;;;;;-6.32;100.00;101631.34;5121154;22;21234;-86
2022/01/11 02:19:23;;;;;;;91.83;34.23;;;;;;;-6.20;100.00;101636.47;5150358;22;20677;-79
2022/01/11 02:21:50;;;;;;;92.87;34.70;;;;;;;-6.20;100.00;101639.06;5160723;22;20309;-81
2022/01/11 02:24:17;;;;;;;92.33;33.57;;;;;;;-6.17;100.00;101637.28;5169076;22;20957;-83
2022/01/11 02:26:43;;;;;;;98.57;35.77;;;;;;;-6.33;100.00;101634.81;5158640;22;20201;-79
2022/01/11 02:29:10;;;;;;;89.87;34.13;;;;;;;-6.19;100.00;101643.34;5164870;22;20203;-84
2022/01/11 02:31:38;;;;;;;93.23;33.57;;;;;;;-6.15;100.00;101645.06;5154887;22;20201;-77
2022/01/11 02:34:07;;;;;;;87.10;33.07;;;;;;;-6.16;100.00;101641.63;5198440;22;20353;-88
2022/01/11 02:36:37;;;;;;;93.10;35.17;;;;;;;-6.12;100.00;101647.63;5289655;22;20211;-81
2022/01/11 02:39:06;;;;;;;84.87;32.63;;;;;;;-6.17;100.00;101646.81;5280371;22;20201;-78
2022/01/11 02:41:33;;;;;;;99.13;34.40;;;;;;;-6.27;100.00;101650.31;5251728;22;21193;-86
2022/01/11 02:44:01;;;;;;;94.70;34.73;;;;;;;-6.38;100.00;101647.78;5150408;22;20615;-83
2022/01/11 02:46:28;;;;;;;97.07;36.67;;;;;;;-6.23;100.00;101652.88;5188110;22;20191;-81
2022/01/11 02:48:55;;;;;;;103.20;38.17;;;;;;;-6.39;100.00;101662.47;5169341;22;20231;-81
2022/01/11 02:51:24;;;;;;;90.03;34.90;;;;;;;-6.26;100.00;101655.47;5132838;22;20205;-82
2022/01/11 02:53:53;;;;;;;103.47;37.30;;;;;;;-6.45;100.00;101659.88;5125242;22;20201;-82
2022/01/11 02:56:20;;;;;;;105.73;36.77;;;;;;;-6.59;100.00;101659.09;5147334;22;20282;-80
2022/01/11 02:58:46;;;;;;;95.10;35.37;;;;;;;-6.54;100.00;101666.84;5114832;22;20295;-81
2022/01/11 03:01:13;;;;;;;95.07;35.47;;;;;;;-6.44;100.00;101664.22;5142567;22;25409;-84
2022/01/11 03:03:40;;;;;;;100.00;36.80;;;;;;;-6.33;100.00;101665.88;5153718;22;20197;-81
2022/01/11 03:06:09;;;;;;;98.90;35.47;;;;;;;-6.30;100.00;101668.44;5121663;22;20236;-80
2022/01/11 03:08:39;;;;;;;104.20;38.93;;;;;;;-6.51;100.00;101667.66;5154298;22;20197;-78
2022/01/11 03:11:14;;;;;;;108.03;37.93;;;;;;;-6.67;100.00;101666.91;5143034;22;20197;-82
2022/01/11 03:13:43;;;;;;;105.23;36.60;;;;;;;-6.84;100.00;101663.47;5093864;22;20206;-78
2022/01/11 03:16:11;;;;;;;101.13;36.57;;;;;;;-6.79;100.00;101661.72;5130061;22;21554;-80
2022/01/11 03:18:37;;;;;;;112.60;38.87;;;;;;;-6.61;100.00;101660.81;5123888;22;20207;-79
2022/01/11 03:21:04;;;;;;;100.70;36.67;;;;;;;-6.43;100.00;101673.69;5123252;22;20202;-80
2022/01/11 03:23:31;;;;;;;102.73;37.37;;;;;;;-6.60;100.00;101678.94;5135597;22;20213;-80
2022/01/11 03:26:01;;;;;;;112.03;40.60;;;;;;;-6.83;100.00;101676.44;5119214;22;21281;-79
2022/01/11 03:28:28;;;;;;;100.10;37.17;;;;;;;-6.81;100.00;101682.47;5096925;22;20200;-77
2022/01/11 03:30:54;;;;;;;101.67;37.83;;;;;;;-6.81;100.00;101679.88;5075539;22;25322;-80
2022/01/11 03:33:21;;;;;;;102.73;38.10;;;;;;;-6.68;100.00;101674.66;5103817;22;20369;-83
2022/01/11 03:35:49;;;;;;;97.83;35.67;;;;;;;-6.49;100.00;101681.47;5091732;22;20207;-79
2022/01/11 03:38:17;;;;;;;102.80;37.77;;;;;;;-6.50;100.00;101684.94;5101621;22;20208;-80
2022/01/11 03:40:43;;;;;;;108.43;39.57;;;;;;;-6.67;100.00;101682.44;5100683;22;20298;-80
2022/01/11 03:43:10;;;;;;;105.00;37.77;;;;;;;-6.60;100.00;101675.50;5121656;22;20202;-83
2022/01/11 03:45:38;;;;;;;102.97;37.67;;;;;;;-6.53;100.00;101679.78;5097938;22;21157;-77
2022/01/11 03:48:06;;;;;;;105.87;36.90;;;;;;;-6.44;100.00;101679.75;5118043;22;20210;-77
2022/01/11 03:50:33;;;;;;;110.63;37.33;;;;;;;-6.44;100.00;101684.94;5091620;22;20214;-79
2022/01/11 03:53:09;;;;;;;101.83;37.70;;;;;;;-6.64;100.00;101684.13;5104071;22;21274;-78
2022/01/11 03:55:47;;;;;;;94.47;37.27;;;;;;;-6.46;100.00;101686.66;5083678;22;21162;-80
2022/01/11 03:58:15;;;;;;;107.40;37.77;;;;;;;-6.41;100.00;101694.41;5092154;22;20666;-81
2022/01/11 04:00:42;;;;;;;101.73;38.27;;;;;;;-6.39;100.00;101692.69;5096875;22;20850;-79
2022/01/11 04:03:10;;;;;;;99.27;36.37;;;;;;;-6.37;100.00;101696.97;5113417;22;21415;-81
2022/01/11 04:05:36;;;;;;;96.30;37.10;;;;;;;-6.34;100.00;101696.09;5116806;22;20208;-81
2022/01/11 04:08:03;;;;;;;94.97;35.83;;;;;;;-6.55;100.00;101702.22;5073435;22;20199;-79
2022/01/11 04:10:30;;;;;;;92.63;35.50;;;;;;;-6.52;100.00;101698.75;5076969;22;21169;-82
2022/01/11 04:12:57;;;;;;;100.00;35.13;;;;;;;-6.47;100.00;101703.06;5088277;22;22659;-84
2022/01/11 04:15:23;;;;;;;96.67;36.00;;;;;;;-6.57;100.00;101705.69;5091594;22;20207;-83
2022/01/11 04:17:50;;;;;;;101.07;35.53;;;;;;;-6.62;100.00;101718.66;5086734;22;20205;-80
2022/01/11 04:20:19;;;;;;;99.73;37.60;;;;;;;-6.42;100.00;101706.47;5135954;22;20202;-82
2022/01/11 04:22:46;;;;;;;88.60;33.90;;;;;;;-6.34;100.00;101721.13;5097053;22;20746;-80
2022/01/11 04:25:13;;;;;;;103.17;36.83;;;;;;;-6.41;100.00;101712.53;5073910;22;20988;-82
2022/01/11 04:27:41;;;;;;;100.03;35.50;;;;;;;-6.46;100.00;101715.16;5102031;22;20203;-78
2022/01/11 04:30:08;;;;;;;89.13;34.73;;;;;;;-6.49;100.00;101722.91;5093128;22;20208;-81
2022/01/11 04:32:34;;;;;;;96.67;35.50;;;;;;;-6.48;100.00;101719.47;5097856;22;22552;-80
2022/01/11 04:35:01;;;;;;;99.67;36.40;;;;;;;-6.49;100.00;101722.91;5089722;22;20234;-80
2022/01/11 04:37:28;;;;;;;89.60;34.27;;;;;;;-6.36;100.00;101723.75;5107280;22;20577;-84
2022/01/11 04:39:55;;;;;;;97.73;36.60;;;;;;;-6.58;100.00;101722.94;5096017;22;20286;-79
2022/01/11 04:42:21;;;;;;;91.47;35.63;;;;;;;-6.47;100.00;101721.19;5085687;22;20260;-82
2022/01/11 04:44:48;;;;;;;96.87;34.90;;;;;;;-6.46;100.00;101722.03;5082632;22;20203;-82
2022/01/11 04:47:15;;;;;;;100.83;35.43;;;;;;;-6.47;100.00;101735.84;5098844;22;20581;-79
2022/01/11 04:49:42;;;;;;;96.03;36.40;;;;;;;-6.35;100.00;101729.78;5091525;22;21504;-78
2022/01/11 04:52:09;;;;;;;90.17;35.30;;;;;;;-6.33;100.00;101728.91;5086155;22;20215;-81
2022/01/11 04:54:35;;;;;;;100.93;36.13;;;;;;;-6.37;100.00;101730.66;5120776;22;20441;-79
2022/01/11 04:57:04;;;;;;;90.43;35.53;;;;;;;-6.33;100.00;101730.63;5091594;22;20388;-81
2022/01/11 04:59:31;;;;;;;92.10;34.37;;;;;;;-6.27;100.00;101734.06;5094851;22;20960;-81
2022/01/11 05:01:57;;;;;;;96.40;35.83;;;;;;;-6.30;100.00;101735.78;5115870;22;20208;-80
2022/01/11 05:04:24;;;;;;;90.20;35.40;;;;;;;-6.21;100.00;101739.19;5118295;22;20203;-79
2022/01/11 05:06:51;;;;;;;93.57;35.30;;;;;;;-6.21;100.00;101735.75;5099002;22;21084;-78
2022/01/11 05:09:17;;;;;;;105.60;36.10;;;;;;;-6.15;100.00;101730.56;5117330;22;22334;-78
2022/01/11 05:11:44;;;;;;;100.63;35.60;;;;;;;-6.18;100.00;101733.13;5077629;22;20297;-81
2022/01/11 05:14:10;;;;;;;98.43;36.50;;;;;;;-6.19;100.00;101732.28;5101075;22;20210;-81
2022/01/11 05:16:37;;;;;;;101.37;37.37;;;;;;;-6.19;100.00;101728.84;5055852;22;20235;-81
2022/01/11 05:19:06;;;;;;;94.60;33.97;;;;;;;-6.25;100.00;101726.25;5049508;22;20208;-82
2022/01/11 05:21:33;;;;;;;101.83;35.83;;;;;;;-6.28;100.00;101727.13;5072527;22;20214;-80
2022/01/11 05:24:00;;;;;;;99.53;37.47;;;;;;;-6.26;100.00;101724.56;5059162;22;20811;-79
2022/01/11 05:26:26;;;;;;;103.53;37.83;;;;;;;-6.27;100.00;101733.22;5073012;22;20211;-78
2022/01/11 05:28:53;;;;;;;96.63;35.73;;;;;;;-6.24;100.00;101726.28;5086472;22;21587;-82
2022/01/11 05:31:19;;;;;;;97.87;36.93;;;;;;;-6.20;100.00;101732.31;5058228;22;21233;-81
2022/01/11 05:33:46;;;;;;;102.97;37.07;;;;;;;-6.24;100.00;101733.19;5089981;22;20208;-80
2022/01/11 05:36:13;;;;;;;99.13;35.53;;;;;;;-6.23;100.00;101735.78;5122193;22;20203;-81
2022/01/11 05:38:39;;;;;;;88.97;33.50;;;;;;;-6.18;100.00;101734.03;5082029;22;20207;-80
2022/01/11 05:41:10;;;;;;;101.30;37.50;;;;;;;-6.17;100.00;101735.72;5079851;22;21779;-82
2022/01/11 05:43:37;;;;;;;96.20;35.50;;;;;;;-6.11;100.00;101729.69;5051780;22;20270;-79
2022/01/11 05:46:05;;;;;;;92.10;35.63;;;;;;;-6.10;100.00;101736.56;5114855;22;20366;-80
2022/01/11 05:48:32;;;;;;;92.03;35.83;;;;;;;-6.03;100.00;101743.44;5110171;22;20204;-83
2022/01/11 05:51:00;;;;;;;99.07;36.50;;;;;;;-6.08;100.00;101755.56;5083652;22;20705;-81
2022/01/11 05:53:26;;;;;;;98.50;36.43;;;;;;;-6.01;100.00;101761.59;5078612;22;20525;-78
2022/01/11 05:55:53;;;;;;;99.40;36.30;;;;;;;-5.90;100.00;101758.91;5098626;22;20585;-77
2022/01/11 05:58:19;;;;;;;96.27;36.00;;;;;;;-5.85;100.00;101763.19;5081316;22;20378;-79
2022/01/11 06:00:46;;;;;;;97.83;36.20;;;;;;;-5.85;100.00;101768.38;5092508;22;20245;-80
2022/01/11 06:03:13;;;;;;;81.80;32.90;;;;;;;-5.93;100.00;101755.44;5098226;22;20264;-80
2022/01/11 06:05:40;;;;;;;91.07;34.93;;;;;;;-6.04;100.00;101766.75;5086974;22;20251;-79
2022/01/11 06:08:07;;;;;;;93.27;35.17;;;;;;;-6.31;100.00;101767.75;5063957;22;21491;-78
2022/01/11 06:10:34;;;;;;;96.90;34.33;;;;;;;-6.24;100.00;101774.63;5081754;22;20216;-78
2022/01/11 06:13:01;;;;;;;98.57;36.60;;;;;;;-6.20;100.00;101781.53;5086776;22;21206;-77
2022/01/11 06:15:30;;;;;;;107.07;37.40;;;;;;;-6.17;100.00;101786.69;5112366;22;20207;-78
2022/01/11 06:17:57;;;;;;;99.70;36.33;;;;;;;-6.19;100.00;101789.28;5109635;22;20301;-81
2022/01/11 06:20:24;;;;;;;123.77;40.67;;;;;;;-6.33;100.00;101790.19;5082837;22;20203;-77
2022/01/11 06:22:53;;;;;;;122.27;39.53;;;;;;;-6.42;100.00;101797.09;5121225;22;20909;-78
2022/01/11 06:25:20;;;;;;;140.97;39.67;;;;;;;-6.44;100.00;101797.97;5132892;22;20203;-77
2022/01/11 06:27:47;;;;;;;116.03;38.77;;;;;;;-6.41;100.00;101803.19;5112471;22;21604;-77
2022/01/11 06:30:15;;;;;;;111.47;38.03;;;;;;;-6.34;100.00;101807.47;5133380;22;20516;-78
2022/01/11 06:32:43;;;;;;;118.43;39.00;;;;;;;-6.23;100.00;101807.44;5117177;22;20431;-78
2022/01/11 06:35:12;;;;;;;113.67;37.37;;;;;;;-6.19;100.00;101803.97;5115112;22;20903;-77
2022/01/11 06:37:38;;;;;;;114.63;39.30;;;;;;;-6.16;100.00;101814.31;5094039;22;20419;-78
2022/01/11 06:40:05;;;;;;;159.87;37.60;;;;;;;-6.09;100.00;101828.09;5102304;22;20256;-77
2022/01/11 06:42:33;;;;;;;201.73;41.07;;;;;;;-6.55;100.00;101829.09;5118410;22;20206;-78
2022/01/11 06:44:59;;;;;;;219.53;39.60;;;;;;;-6.66;100.00;101839.44;5086160;22;21060;-76
2022/01/11 06:47:26;;;;;;;135.47;39.60;;;;;;;-6.83;100.00;101844.63;5137734;22;21500;-76
2022/01/11 06:49:53;;;;;;;315.63;43.03;;;;;;;-6.92;100.00;101846.34;5097077;22;20277;-76
2022/01/11 06:52:19;;;;;;;250.17;43.37;;;;;;;-7.12;100.00;101854.09;5145120;22;20282;-82
2022/01/11 06:54:46;;;;;;;223.37;44.00;;;;;;;-7.23;100.00;101857.53;5184861;22;20238;-78
2022/01/11 06:57:13;;;;;;;264.33;47.70;;;;;;;-7.10;100.00;101847.19;5139435;22;22211;-79
2022/01/11 06:59:41;;;;;;;229.83;44.43;;;;;;;-7.29;100.00;101856.66;5186129;22;21740;-81
2022/01/11 07:02:08;;;;;;;225.27;44.93;;;;;;;-7.44;100.00;101867.84;5125835;22;22887;-77
2022/01/11 07:04:37;;;;;;;175.87;40.53;;;;;;;-7.54;100.00;101866.94;5150346;22;20903;-79
2022/01/11 07:07:05;;;;;;;217.67;43.97;;;;;;;-7.69;100.00;101872.03;5137271;22;20258;-80
2022/01/11 07:09:35;;;;;;;189.73;42.30;;;;;;;-7.72;100.00;101878.06;5157501;22;21245;-77
2022/01/11 07:12:02;;;;;;;177.93;40.87;;;;;;;-7.74;100.00;101884.09;5075480;22;20572;-79
2022/01/11 07:14:29;;;;;;;211.03;42.27;;;;;;;-7.81;100.00;101878.03;5137161;22;20276;-79
2022/01/11 07:16:56;;;;;;;149.13;40.03;;;;;;;-7.75;100.00;101885.81;5099748;22;20208;-79
2022/01/11 07:19:23;;;;;;;131.93;39.07;;;;;;;-7.66;100.00;101891.00;5134224;22;22322;-77
2022/01/11 07:21:49;;;;;;;131.40;40.17;;;;;;;-7.53;100.00;101898.81;5108874;22;22228;-79
2022/01/11 07:24:17;;;;;;;244.83;41.93;;;;;;;-7.52;100.00;101892.78;5109344;22;20637;-79
2022/01/11 07:26:44;;;;;;;194.73;40.53;;;;;;;-7.54;100.00;101902.25;5101986;22;20326;-79
2022/01/11 07:29:11;;;;;;;154.70;41.47;;;;;;;-7.54;100.00;101908.31;5158453;22;20575;-78
2022/01/11 07:31:41;;;;;;;184.27;44.43;;;;;;;-7.47;100.00;101909.16;5135292;22;22063;-77
2022/01/11 07:34:09;;;;;;;141.77;43.00;;;;;;;-7.39;100.00;101912.66;5137835;22;20306;-77
2022/01/11 07:36:36;;;;;;;139.80;42.63;;;;;;;-7.37;100.00;101916.13;5087407;22;21564;-77
2022/01/11 07:39:05;;;;;;;144.77;41.83;;;;;;;-7.31;100.00;101910.94;5075703;22;22196;-77
2022/01/11 07:41:33;;;;;;;147.23;41.47;;;;;;;-7.22;100.00;101918.72;5110792;22;20277;-77
2022/01/11 07:44:00;;;;;;;152.20;43.43;;;;;;;-7.16;100.00;101910.16;5118618;22;20202;-79
2022/01/11 07:46:26;;;;;;;158.40;41.40;;;;;;;-7.16;100.00;101912.72;5108624;22;21014;-77
2022/01/11 07:48:53;;;;;;;173.43;39.30;;;;;;;-7.07;100.00;101914.44;5134878;22;20198;-78
2022/01/11 07:51:20;;;;;;;148.50;36.93;;;;;;;-7.00;100.00;101913.59;5104016;22;20201;-78
2022/01/11 07:53:46;;;;;;;146.87;38.87;;;;;;;-6.89;100.00;101911.03;5130439;22;20663;-74
2022/01/11 07:56:13;;;;;;;147.90;37.07;;;;;;;-6.78;100.00;101905.91;5152970;22;20207;-79
2022/01/11 07:58:40;;;;;;;138.97;35.50;;;;;;;-6.70;100.00;101909.34;5116351;22;23090;-81
2022/01/11 08:01:09;;;;;;;128.20;37.57;;;;;;;-6.43;100.00;101911.94;5067860;22;21074;-76
2022/01/11 08:03:36;;;;;;;177.83;36.47;;;;;;;-6.31;100.00;101912.78;5112803;22;21656;-75
2022/01/11 08:06:04;;;;;;;109.20;35.43;;;;;;;-6.28;100.00;101913.63;5103832;22;21264;-77
2022/01/11 08:08:30;;;;;;;134.53;37.33;;;;;;;-6.16;100.00;101917.94;5139958;22;20207;-78
2022/01/11 08:10:58;;;;;;;129.23;36.87;;;;;;;-5.99;100.00;101918.78;5104660;22;20202;-74
2022/01/11 08:13:25;;;;;;;124.63;36.53;;;;;;;-5.95;100.00;101923.09;5178162;22;20237;-78
2022/01/11 08:15:51;;;;;;;121.77;36.70;;;;;;;-5.72;100.00;101924.72;5110814;22;22818;-76
2022/01/11 08:18:18;;;;;;;120.33;36.03;;;;;;;-5.64;100.00;101924.69;5148311;22;20685;-77
2022/01/11 08:20:45;;;;;;;123.77;36.13;;;;;;;-5.56;100.00;101920.34;5115345;22;20203;-79
2022/01/11 08:23:11;;;;;;;145.97;38.00;;;;;;;-5.57;100.00;101921.22;5129635;22;20209;-78
2022/01/11 08:25:38;;;;;;;138.20;36.03;;;;;;;-5.46;100.00;101929.81;5124449;22;21477;-81
2022/01/11 08:28:05;;;;;;;119.23;35.40;;;;;;;-5.34;100.00;101936.69;5115178;22;20202;-84
2022/01/11 08:30:36;;;;;;;162.40;52.00;;;;;;;-5.23;100.00;101940.09;5098895;22;21006;-83
2022/01/11 08:33:04;;;;;;;117.20;36.67;;;;;;;-4.98;100.00;101939.97;5137943;22;20393;-77
2022/01/11 08:35:31;;;;;;;127.37;37.07;;;;;;;-4.85;100.00;101936.41;5148643;22;22460;-76
2022/01/11 08:38:03;;;;;;;136.80;37.07;;;;;;;-4.88;100.00;101939.88;5123134;22;20247;-80
2022/01/11 08:40:29;;;;;;;121.80;34.83;;;;;;;-4.74;100.00;101944.13;5121675;22;21207;-78
2022/01/11 08:42:56;;;;;;;129.97;37.30;;;;;;;-4.64;100.00;101939.75;5103544;22;20211;-77
2022/01/11 08:45:23;;;;;;;117.17;34.70;;;;;;;-4.65;100.00;101945.81;5100771;22;20260;-74
2022/01/11 08:47:49;;;;;;;122.23;36.03;;;;;;;-4.65;100.00;101932.84;5108670;22;20206;-82
2022/01/11 08:50:16;;;;;;;124.40;35.50;;;;;;;-4.49;100.00;101944.84;5114381;22;20205;-74
2022/01/11 08:52:43;;;;;;;120.23;36.87;;;;;;;-4.34;100.00;101952.47;5185647;22;20237;-76
2022/01/11 08:55:11;;;;;;;124.57;37.43;;;;;;;-4.28;100.00;101947.25;5111514;22;20205;-77
2022/01/11 08:57:38;;;;;;;120.30;36.27;;;;;;;-4.34;100.00;101944.69;5123437;22;20263;-79
2022/01/11 09:00:10;;;;;;;109.13;33.80;;;;;;;-4.15;100.00;101949.72;5099057;22;20215;-78
2022/01/11 09:02:37;;;;;;;109.57;34.27;;;;;;;-4.16;100.00;101950.63;5112009;22;21450;-77
2022/01/11 09:05:04;;;;;;;117.10;36.27;;;;;;;-4.18;100.00;101939.38;5124767;22;22657;-79
2022/01/11 09:07:30;;;;;;;107.63;32.83;;;;;;;-4.35;100.00;101942.97;5129084;22;20275;-81
2022/01/11 09:09:57;;;;;;;115.60;34.63;;;;;;;-4.20;100.00;101944.56;5156519;22;20330;-78
2022/01/11 09:12:24;;;;;;;111.50;33.03;;;;;;;-4.12;100.00;101947.09;5198923;22;20264;-79
2022/01/11 09:14:50;;;;;;;105.73;33.07;;;;;;;-4.17;100.00;101946.28;5191215;22;20207;-76
2022/01/11 09:17:17;;;;;;;97.63;33.20;;;;;;;-4.00;100.00;101938.31;5198730;22;20207;-80
2022/01/11 09:19:44;;;;;;;114.67;36.30;;;;;;;-3.98;100.00;101937.47;5090447;22;21702;-78
2022/01/11 09:22:10;;;;;;;110.20;32.87;;;;;;;-3.93;100.00;101945.22;5182613;22;20203;-79
2022/01/11 09:24:37;;;;;;;111.07;34.10;;;;;;;-3.80;100.00;101940.72;5137561;22;20366;-79
2022/01/11 09:27:05;;;;;;;95.43;32.77;;;;;;;-3.72;100.00;101942.38;5170727;22;22032;-76
2022/01/11 09:29:38;;;;;;;125.33;35.67;;;;;;;-3.55;100.00;101947.38;5200601;22;20246;-80
2022/01/11 09:32:09;;;;;;;107.23;33.80;;;;;;;-3.59;100.00;101944.84;5173707;22;20205;-78
2022/01/11 09:34:38;;;;;;;90.57;32.80;;;;;;;-3.56;100.00;101948.25;5165038;22;25566;-76
2022/01/11 09:37:09;;;;;;;93.97;31.97;;;;;;;-3.44;99.04;101945.53;5188932;22;20241;-78
2022/01/11 09:39:38;;;;;;;92.13;31.77;;;;;;;-3.33;98.79;101941.91;5156766;22;20498;-78
2022/01/11 09:42:05;;;;;;;94.80;31.27;;;;;;;-3.12;98.55;101944.25;5134526;22;25093;-75
2022/01/11 09:44:35;;;;;;;89.17;29.93;;;;;;;-2.95;98.06;101936.22;5093177;22;20210;-77
2022/01/11 09:47:01;;;;;;;91.87;31.13;;;;;;;-2.63;97.79;101934.88;5225259;22;20202;-80
2022/01/11 09:49:31;;;;;;;89.87;30.67;;;;;;;-2.42;96.30;101937.13;5146563;22;20200;-75
2022/01/11 09:52:01;;;;;;;98.47;31.33;;;;;;;-2.16;95.14;101939.28;5248294;22;20467;-83
2022/01/11 09:54:29;;;;;;;82.30;30.60;;;;;;;-2.56;93.10;101934.72;5272697;22;20574;-76
2022/01/11 09:56:55;;;;;;;86.80;30.57;;;;;;;-2.12;93.61;101933.13;5184502;22;20202;-79
2022/01/11 09:59:22;;;;;;;80.97;30.57;;;;;;;-1.79;92.25;101938.63;5170772;22;20258;-80
2022/01/11 10:01:49;;;;;;;94.87;31.97;;;;;;;-1.64;91.27;101939.22;5153110;22;20718;-76
2022/01/11 10:04:18;;;;;;;92.60;34.10;;;;;;;-1.47;89.65;101939.75;5229060;22;20216;-77
2022/01/11 10:06:56;;;;;;;109.23;38.70;;;;;;;-1.62;87.15;101947.88;5149537;22;20201;-78
2022/01/11 10:09:24;;;;;;;98.70;36.57;;;;;;;-1.83;87.29;101944.78;5144010;22;20346;-78
2022/01/11 10:11:56;;;;;;;94.57;33.90;;;;;;;-1.92;88.01;101944.94;5131045;22;21660;-76
2022/01/11 10:14:32;;;;;;;93.90;32.57;;;;;;;-2.02;88.13;101944.25;5100958;23;20202;-75
2022/01/11 10:17:15;;;;;;;93.07;33.93;;;;;;;-2.21;88.75;101946.34;5138056;22;20201;-77
2022/01/11 10:19:47;;;;;;;83.27;29.57;;;;;;;-2.21;88.82;101948.09;5131871;22;20639;-76
2022/01/11 10:22:22;;;;;;;74.73;28.13;;;;;;;-2.36;89.57;101950.06;5127753;22;20205;-77
2022/01/11 10:24:51;;;;;;;81.63;28.23;;;;;;;-2.74;91.72;101945.44;5116982;22;20212;-79
2022/01/11 10:27:23;;;;;;;70.03;27.03;;;;;;;-2.59;92.20;101953.03;5124087;22;20209;-82
2022/01/11 10:29:58;;;;;;;75.23;27.73;;;;;;;-2.67;92.79;101946.22;5112080;22;20302;-81
2022/01/11 10:32:26;;;;;;;64.40;26.57;;;;;;;-2.52;93.09;101953.81;5160163;22;20298;-78
2022/01/11 10:35:07;;;;;;;66.00;25.67;;;;;;;-2.60;92.89;101953.94;5143914;22;21101;-79
2022/01/11 10:37:43;;;;;;;70.93;25.73;;;;;;;-2.53;92.75;101953.81;5120080;22;20207;-79
2022/01/11 10:40:12;;;;;;;64.50;24.73;;;;;;;-2.50;92.33;101959.00;5191869;22;20229;-80
2022/01/11 10:42:45;;;;;;;67.53;23.93;;;;;;;-2.64;92.13;101965.28;5172192;22;22240;-79
2022/01/11 10:45:14;;;;;;;60.57;24.40;;;;;;;-2.55;92.37;101951.25;5146412;22;20217;-78
2022/01/11 10:47:51;;;;;;;66.10;24.30;;;;;;;-2.48;91.15;101950.28;5098527;22;20254;-78
2022/01/11 10:50:26;;;;;;;66.40;26.33;;;;;;;-2.40;91.51;101948.38;5108706;22;21258;-81
2022/01/11 10:52:53;;;;;;;66.53;27.13;;;;;;;-2.60;91.05;101950.44;5108358;22;20237;-78
2022/01/11 10:55:21;;;;;;;68.53;26.23;;;;;;;-2.48;91.64;101949.38;5124200;22;21582;-78
2022/01/11 10:57:51;;;;;;;74.43;29.10;;;;;;;-2.51;91.62;101955.50;5110452;22;20213;-78
2022/01/11 11:00:37;;;;;;;76.83;29.87;;;;;;;-2.36;91.95;101959.63;5104706;22;20214;-78
2022/01/11 11:03:13;;;;;;;84.83;30.47;;;;;;;-2.27;91.12;101959.50;5135099;22;23289;-78
2022/01/11 11:05:45;;;;;;;86.30;31.30;;;;;;;-2.33;91.06;101954.38;5128395;22;20203;-78